# Land Stadt Wetter Temperatur Luftdruck Luftfeuchtigkeit Sichtweite Windgeschwindigkeit Windrichtung Ortszeit
1 us Death Valley Clear 25 1002 11 0 8 114 02.08.2018 14:22
2 cn Peking Clear 37 998 40 0 8 186 02.08.2018 14:23
3 de München Clouds 14 1018 92 0 5 77 02.08.2018 14:21
4 mn Uliastai Clear 21 1003 29 0 23 244 02.08.2018 14:23
5 cn Lhasa Clouds 22 1005 34 0 7 182 02.08.2018 14:22
6 de Hiddensee Clouds 17 1019 76 0 5 135 02.08.2018 14:21
7 de Emden Rain 15 1014 91 0 3 158 02.08.2018 14:21
8 pg Port Moresby Rain 26 1009 86 0 32 146 02.08.2018 14:21
9 ad Andorra la Vella Clouds 11 1016 78 0 7 21 02.08.2018 14:22
10 de Freiburg Clouds 15 1017 64 0 2 250 02.08.2018 14:22
11 de Torfhaus Clouds 17 1017 74 0 6 209 02.08.2018 14:22
12 ec San Cristobal Clouds 20 1013 91 0 17 172 02.08.2018 14:22
13 ar Esquel Clouds -5 1025 92 0 4 313 02.08.2018 14:22
14 de Magdeburg Clear 18 1009 68 0 8 162 02.08.2018 14:22
15 bo Potisi Clear 1 1021 79 0 6 343 02.08.2018 14:22
16 au Sydney Rain 14 1009 82 0 5 262 02.08.2018 14:22
17 ru Werchojansk Clouds 23 1004 43 0 35 341 02.08.2018 14:22
18 gl Nuuk Clouds 4 1012 93 0 5 290 02.08.2018 14:22
19 no Oslo Rain 13 988 94 0 3 314 02.08.2018 14:23
20 pe Cusco Clear 8 1022 69 0 3 327 02.08.2018 14:23
21 et Addis Abeba Rain 17 1015 69 0 10 288 02.08.2018 14:23
22 ru Amderma Clouds 8 1013 73 0 38 269 02.08.2018 14:23
23 de Oberstdorf Clouds 13 1018 90 0 2 210 02.08.2018 14:21
24 ch Andermatt Clouds 10 1014 83 0 3 22 02.08.2018 14:23
25 th Bangkok Clouds 33 1007 51 0 8 228 02.08.2018 14:21
26 mx Veracruz Rain 26 1013 76 0 2 200 02.08.2018 14:21
27 in Jagatsukh Rain 26 1007 43 0 13 203 02.08.2018 14:22
28 ma Marrakesch Clear 22 1014 73 0 8 250 02.08.2018 14:23
29 cd Kisangani Clouds 23 1012 92 0 3 276 02.08.2018 14:23
30 in Mumbai Rain 27 1005 100 2000 9 170 02.08.2018 14:22
31 mg Antananarivo Mist 13 1022 100 2500 2 0 02.08.2018 14:21
32 tr Alanya Dust 25 1009 61 4000 7 314 02.08.2018 14:22
33 in Nagpur Haze 29 1005 83 4000 4 240 02.08.2018 14:21
34 id Jakarta Haze 29 1008 83 4000 8 230 02.08.2018 14:22
35 cl Santiago Mist 7 1019 93 5000 4 0 02.08.2018 14:23
36 ma Casablanca Clouds 21 1013 88 6000 8 320 02.08.2018 14:23
37 jp Tokio Clouds 24 1000 88 7000 9 50 02.08.2018 14:22
38 tr Istanbul Clouds 23 1015 44 10000 28 30 02.08.2018 14:23
39 br Rio de Janeiro Clouds 20 1014 88 10000 5 120 02.08.2018 14:22
40 za Kapstadt Rain 9 1024 66 10000 13 210 02.08.2018 14:22
41 pt Lissabon Clouds 21 1015 68 10000 22 310 02.08.2018 14:22
42 es Barcelona Clouds 23 1016 78 10000 21 330 02.08.2018 14:22
43 ru Moskau Rain 17 1010 87 10000 18 360 02.08.2018 14:22
44 de Helgoland Rain 16 1014 82 10000 8 250 02.08.2018 14:22
45 mn Ulaanbaatar Thunderstorm 25 1010 50 10000 25 160 02.08.2018 14:23
46 tr Ankara Clouds 21 1014 46 10000 13 60 02.08.2018 14:23
47 eg Kairo Clouds 26 1006 69 10000 5 350 02.08.2018 14:22
48 ru Surgut Clouds 18 1021 52 10000 14 300 02.08.2018 14:23
49 es Palma de Mallorca Clouds 23 1017 68 10000 5 330 02.08.2018 14:22
50 gr Athen Clouds 24 1012 47 10000 18 350 02.08.2018 14:22
51 no Hammerfest Clear 10 1018 76 10000 18 80 02.08.2018 14:22
52 ru Jakutsk Clear 28 1004 28 10000 18 310 02.08.2018 14:22
53 it Rom Clouds 21 1012 52 10000 9 30 02.08.2018 14:23
54 es Madrid Clouds 20 1019 42 10000 8 360 02.08.2018 14:23
55 mv Male Clouds 31 1008 89 10000 11 360 02.08.2018 14:23
56 se Stockholm Clouds 16 1014 77 10000 8 180 02.08.2018 14:23
57 ru Anadyr Rain 10 1002 93 10000 18 110 02.08.2018 14:23
58 qa Doha Clear 40 998 26 10000 8 30 02.08.2018 14:23
59 nz Wellington Clouds 8 1022 81 10000 4 80 02.08.2018 14:23
60 uy Montevideo Clear 6 1021 56 10000 15 250 02.08.2018 14:22
61 ar Ushuaia Clouds 0 1014 90 10000 15 290 02.08.2018 14:22
62 is Reykjavik Clouds 11 1009 81 10000 13 70 02.08.2018 14:22
63 it Palermo Clouds 27 1012 74 10000 4 0 02.08.2018 14:22
64 at Wien Clouds 15 1019 67 10000 4 0 02.08.2018 14:22
65 ke Nairobi Clouds 16 1022 82 10000 7 38 02.08.2018 14:22
66 ch Bern Clouds 16 1018 82 10000 2 212 02.08.2018 14:23
67 iq Bagdad Clear 37 1000 29 10000 9 250 02.08.2018 14:22
68 at Innsbruck Clouds 12 1019 82 10000 5 270 02.08.2018 14:23
69 au Darwin Clear 31 1011 16 10000 8 60 02.08.2018 14:22
70 af Kabul Clouds 25 1017 41 10000 15 70 02.08.2018 14:21
71 ae Dubai Clear 38 999 42 10000 18 150 02.08.2018 14:21
72 fr Bordeaux Clouds 18 1020 88 10000 8 260 02.08.2018 14:21
73 ph Manila Clouds 34 1008 59 10000 15 270 02.08.2018 14:21
74 de Berlin Clear 18 1016 59 10000 9 170 02.08.2018 14:21
75 fj Suva Clouds 25 1013 78 10000 15 130 02.08.2018 14:21
76 au Alice Springs Clear 18 1021 25 10000 18 70 02.08.2018 14:21
77 de Hamburg Clouds 18 1014 63 10000 9 170 02.08.2018 14:21
78 de Trier Clear 15 1017 62 10000 4 12 02.08.2018 14:21
79 jp Nagasaki Rain 24 1003 78 10000 11 290 02.08.2018 14:21
80 bg Warna Clear 20 1016 49 10000 17 10 02.08.2018 14:21
81 bg Sofia Clouds 18 1017 55 10000 21 120 02.08.2018 14:21
82 de Köln Clouds 16 1016 77 10000 8 140 02.08.2018 14:21
83 de Braunschweig Clouds 16 1015 63 10000 4 0 02.08.2018 14:21
84 es Tarifa Clear 24 1015 73 10000 15 100 02.08.2018 14:21
85 sa Riad Clouds 39 1005 13 10000 15 240 02.08.2018 14:21
86 es Las Palmas de Gran Canaria Clouds 21 1014 73 10000 41 360 02.08.2018 14:21
87 ie Dublin Clouds 11 1020 93 10000 24 280 02.08.2018 14:21
88 fi Helsinki Clear 14 1015 71 10000 13 250 02.08.2018 14:21
89 ua Kiew Clear 16 1012 63 10000 22 330 02.08.2018 14:21
90 de Kassel Clouds 15 1016 81 10000 4 260 02.08.2018 14:21
91 de Nürnberg Clouds 16 1018 63 10000 8 120 02.08.2018 14:21
92 de Hannover Clouds 17 1015 77 10000 2 0 02.08.2018 14:21
93 br Manaus Clouds 23 1014 94 10000 4 110 02.08.2018 14:21
94 do Santo Domingo Clouds 27 1016 88 10000 8 20 02.08.2018 14:21
95 fi Rovaniemi Clouds 11 1012 100 10000 17 60 02.08.2018 14:21
96 gb Glasgow Clouds 12 1016 81 10000 13 240 02.08.2018 14:21
97 de Bremen Clouds 15 1015 87 10000 4 0 02.08.2018 14:22
98 bs Nassau Clouds 28 1017 83 10000 8 190 02.08.2018 14:22
99 de Stuttgart Clouds 17 1017 63 10000 4 0 02.08.2018 14:22
100 bo La Paz Clouds -3 1039 79 10000 5 60 02.08.2018 14:22
101 gb London Clouds 16 1017 82 10000 13 310 02.08.2018 14:22
102 fr Nizza Clouds 23 1015 64 10000 9 330 02.08.2018 14:22
103 ar Buenos Aires Clear 4 1024 48 10000 5 290 02.08.2018 14:22
104 ck Avarua Clouds 20 1015 60 10000 8 120 02.08.2018 14:22
105 sb Honiara Clouds 27 1008 83 10000 11 200 02.08.2018 14:22
106 fr Paris Clouds 16 1018 63 10000 5 0 02.08.2018 14:22
107 de Frankfurt Clouds 18 1016 55 10000 8 60 02.08.2018 14:22
108 de Dresden Clouds 18 1018 52 10000 11 150 02.08.2018 14:22
109 gb Manchester Clouds 14 1018 82 10000 13 280 02.08.2018 14:21
110 de Flensburg Rain 14 1014 82 10000 11 220 02.08.2018 14:21
111 it Mailand Clouds 22 1017 64 10000 8 60 02.08.2018 14:21
112 au Perth Clouds 17 1014 51 10000 22 270 02.08.2018 14:21
113 vn Hanoi Clouds 35 1006 50 10000 5 0 02.08.2018 14:21
114 es Sevilla Clear 24 1014 69 10000 4 60 02.08.2018 14:22
115 kr Seoul Clouds 23 1003 60 10000 5 350 02.08.2018 14:21
116 cn Shanghai Clouds 27 1007 78 10000 11 330 02.08.2018 14:21
117 ca Montreal Clear 20 1011 88 14484 8 10 02.08.2018 14:22
118 us Los Angeles Clear 18 1014 77 14484 5 260 02.08.2018 14:22
119 us Honolulu Clouds 26 1015 61 16093 18 70 02.08.2018 14:22
120 mx Mexiko Stadt Clouds 17 1029 63 16093 9 280 02.08.2018 14:21
121 us Fairbanks Clouds 16 1011 59 16093 9 190 02.08.2018 14:23
122 us Chicago Clear 22 1015 60 16093 8 160 02.08.2018 14:23
123 us New York Clear 23 1012 60 16093 9 260 02.08.2018 14:22
124 us Las Vegas Clear 35 1008 15 16093 22 220 02.08.2018 14:21
125 us Tucson Clouds 34 1015 30 16093 9 168 02.08.2018 14:21
126 us Nome Clear 12 1010 76 16093 26 260 02.08.2018 14:23
127 us Denver Clouds 20 1017 63 16093 18 210 02.08.2018 14:21
128 us Miami Clouds 27 1016 79 16093 5 230 02.08.2018 14:23